sensor_id;sensor_type;location;lat;lon;timestamp;temperature;humidity
36652;DHT22;53334;51.976;20.144;2023-07-22T00:01:17;26.60;54.00
36652;DHT22;53334;51.976;20.144;2023-07-22T00:03:51;26.60;54.00
36652;DHT22;53334;51.976;20.144;2023-07-22T00:06:25;26.60;54.60
36652;DHT22;53334;51.976;20.144;2023-07-22T00:08:59;26.60;54.00
36652;DHT22;53334;51.976;20.144;2023-07-22T00:11:34;26.60;54.00
36652;DHT22;53334;51.976;20.144;2023-07-22T00:14:08;26.60;54.10
36652;DHT22;53334;51.976;20.144;2023-07-22T00:16:41;26.60;54.20
36652;DHT22;53334;51.976;20.144;2023-07-22T00:19:14;26.60;54.30
36652;DHT22;53334;51.976;20.144;2023-07-22T00:21:52;26.60;54.30
36652;DHT22;53334;51.976;20.144;2023-07-22T00:24:25;26.60;54.50
36652;DHT22;53334;51.976;20.144;2023-07-22T00:27:01;26.60;54.50
36652;DHT22;53334;51.976;20.144;2023-07-22T00:29:34;26.60;54.50
36652;DHT22;53334;51.976;20.144;2023-07-22T00:32:08;26.60;54.50
36652;DHT22;53334;51.976;20.144;2023-07-22T00:34:41;26.60;54.50
36652;DHT22;53334;51.976;20.144;2023-07-22T00:37:15;26.60;54.60
36652;DHT22;53334;51.976;20.144;2023-07-22T00:39:49;26.60;54.60
36652;DHT22;53334;51.976;20.144;2023-07-22T00:42:24;26.60;54.50
36652;DHT22;53334;51.976;20.144;2023-07-22T00:44:57;26.60;54.50
36652;DHT22;53334;51.976;20.144;2023-07-22T00:47:32;26.60;54.60
36652;DHT22;53334;51.976;20.144;2023-07-22T00:50:07;26.60;54.60
36652;DHT22;53334;51.976;20.144;2023-07-22T00:52:40;26.60;54.50
36652;DHT22;53334;51.976;20.144;2023-07-22T00:55:14;26.60;54.60
36652;DHT22;53334;51.976;20.144;2023-07-22T00:57:48;26.70;54.80
36652;DHT22;53334;51.976;20.144;2023-07-22T01:00:22;26.60;54.90
36652;DHT22;53334;51.976;20.144;2023-07-22T01:02:55;26.60;54.90
36652;DHT22;53334;51.976;20.144;2023-07-22T01:05:30;26.70;55.00
36652;DHT22;53334;51.976;20.144;2023-07-22T01:08:04;26.60;55.00
36652;DHT22;53334;51.976;20.144;2023-07-22T01:10:38;26.70;55.10
36652;DHT22;53334;51.976;20.144;2023-07-22T01:13:12;26.70;55.10
36652;DHT22;53334;51.976;20.144;2023-07-22T01:15:46;26.60;55.00
36652;DHT22;53334;51.976;20.144;2023-07-22T01:18:19;26.60;55.10
36652;DHT22;53334;51.976;20.144;2023-07-22T01:20:53;26.60;55.00
36652;DHT22;53334;51.976;20.144;2023-07-22T01:23:28;26.60;54.90
36652;DHT22;53334;51.976;20.144;2023-07-22T01:26:02;26.60;54.90
36652;DHT22;53334;51.976;20.144;2023-07-22T01:28:35;26.60;54.90
36652;DHT22;53334;51.976;20.144;2023-07-22T01:31:09;26.70;55.00
36652;DHT22;53334;51.976;20.144;2023-07-22T01:33:42;26.60;54.80
36652;DHT22;53334;51.976;20.144;2023-07-22T01:36:15;26.70;54.90
36652;DHT22;53334;51.976;20.144;2023-07-22T01:38:50;26.70;54.80
36652;DHT22;53334;51.976;20.144;2023-07-22T01:41:24;26.60;54.70
36652;DHT22;53334;51.976;20.144;2023-07-22T01:43:57;26.60;54.80
36652;DHT22;53334;51.976;20.144;2023-07-22T01:46:31;26.60;54.80
36652;DHT22;53334;51.976;20.144;2023-07-22T01:49:06;26.60;54.90
36652;DHT22;53334;51.976;20.144;2023-07-22T01:51:40;26.60;54.80
36652;DHT22;53334;51.976;20.144;2023-07-22T01:54:15;26.70;54.90
36652;DHT22;53334;51.976;20.144;2023-07-22T01:56:49;26.60;54.90
36652;DHT22;53334;51.976;20.144;2023-07-22T01:59:22;26.60;54.80
36652;DHT22;53334;51.976;20.144;2023-07-22T02:01:56;26.60;54.80
36652;DHT22;53334;51.976;20.144;2023-07-22T02:04:29;26.60;54.70
36652;DHT22;53334;51.976;20.144;2023-07-22T02:07:03;26.60;54.80
36652;DHT22;53334;51.976;20.144;2023-07-22T02:09:37;26.60;55.10
36652;DHT22;53334;51.976;20.144;2023-07-22T02:12:11;26.60;54.90
36652;DHT22;53334;51.976;20.144;2023-07-22T02:14:44;26.60;54.90
36652;DHT22;53334;51.976;20.144;2023-07-22T02:17:17;26.60;55.00
36652;DHT22;53334;51.976;20.144;2023-07-22T02:19:52;26.60;55.00
36652;DHT22;53334;51.976;20.144;2023-07-22T02:22:26;26.60;55.00
36652;DHT22;53334;51.976;20.144;2023-07-22T02:25:00;26.60;55.00
36652;DHT22;53334;51.976;20.144;2023-07-22T02:27:35;26.60;55.10
36652;DHT22;53334;51.976;20.144;2023-07-22T02:30:09;26.60;55.20
36652;DHT22;53334;51.976;20.144;2023-07-22T02:32:43;26.60;55.30
36652;DHT22;53334;51.976;20.144;2023-07-22T02:35:17;26.60;55.30
36652;DHT22;53334;51.976;20.144;2023-07-22T02:37:50;26.60;55.30
36652;DHT22;53334;51.976;20.144;2023-07-22T02:40:25;26.60;55.30
36652;DHT22;53334;51.976;20.144;2023-07-22T02:42:58;26.60;55.30
36652;DHT22;53334;51.976;20.144;2023-07-22T02:45:32;26.60;55.30
36652;DHT22;53334;51.976;20.144;2023-07-22T02:48:05;26.60;55.20
36652;DHT22;53334;51.976;20.144;2023-07-22T02:50:38;26.60;55.10
36652;DHT22;53334;51.976;20.144;2023-07-22T02:53:12;26.60;55.10
36652;DHT22;53334;51.976;20.144;2023-07-22T02:55:47;26.60;55.10
36652;DHT22;53334;51.976;20.144;2023-07-22T02:58:20;26.60;55.10
36652;DHT22;53334;51.976;20.144;2023-07-22T03:00:54;26.60;55.10
36652;DHT22;53334;51.976;20.144;2023-07-22T03:03:28;26.60;55.10
36652;DHT22;53334;51.976;20.144;2023-07-22T03:06:01;26.60;55.10
36652;DHT22;53334;51.976;20.144;2023-07-22T03:08:35;26.60;55.10
36652;DHT22;53334;51.976;20.144;2023-07-22T03:11:10;26.60;55.80
36652;DHT22;53334;51.976;20.144;2023-07-22T03:13:43;26.60;55.20
36652;DHT22;53334;51.976;20.144;2023-07-22T03:16:17;26.60;55.20
36652;DHT22;53334;51.976;20.144;2023-07-22T03:18:51;26.60;55.10
36652;DHT22;53334;51.976;20.144;2023-07-22T03:21:24;26.60;55.10
36652;DHT22;53334;51.976;20.144;2023-07-22T03:23:57;26.60;55.10
36652;DHT22;53334;51.976;20.144;2023-07-22T03:26:32;26.60;55.00
36652;DHT22;53334;51.976;20.144;2023-07-22T03:29:06;26.60;54.90
36652;DHT22;53334;51.976;20.144;2023-07-22T03:31:40;26.60;54.80
36652;DHT22;53334;51.976;20.144;2023-07-22T03:34:13;26.60;54.80
36652;DHT22;53334;51.976;20.144;2023-07-22T03:36:47;26.60;54.80
36652;DHT22;53334;51.976;20.144;2023-07-22T03:39:21;26.60;54.80
36652;DHT22;53334;51.976;20.144;2023-07-22T03:41:55;26.60;54.70
36652;DHT22;53334;51.976;20.144;2023-07-22T03:44:29;26.60;54.70
36652;DHT22;53334;51.976;20.144;2023-07-22T03:47:02;26.60;54.70
36652;DHT22;53334;51.976;20.144;2023-07-22T03:49:35;26.60;54.60
36652;DHT22;53334;51.976;20.144;2023-07-22T03:52:09;26.60;54.60
36652;DHT22;53334;51.976;20.144;2023-07-22T03:54:46;26.60;55.20
36652;DHT22;53334;51.976;20.144;2023-07-22T03:57:25;26.60;54.70
36652;DHT22;53334;51.976;20.144;2023-07-22T03:59:58;26.60;54.70
36652;DHT22;53334;51.976;20.144;2023-07-22T04:02:32;26.60;54.70
36652;DHT22;53334;51.976;20.144;2023-07-22T04:05:06;26.60;54.60
36652;DHT22;53334;51.976;20.144;2023-07-22T04:07:40;26.60;54.60
36652;DHT22;53334;51.976;20.144;2023-07-22T04:10:13;26.60;54.60
36652;DHT22;53334;51.976;20.144;2023-07-22T04:12:48;26.60;54.50
36652;DHT22;53334;51.976;20.144;2023-07-22T04:15:21;26.60;54.50
36652;DHT22;53334;51.976;20.144;2023-07-22T04:17:54;26.60;54.50
36652;DHT22;53334;51.976;20.144;2023-07-22T04:20:28;26.60;54.40
36652;DHT22;53334;51.976;20.144;2023-07-22T04:23:01;26.60;54.30
36652;DHT22;53334;51.976;20.144;2023-07-22T04:25:39;26.60;54.30
36652;DHT22;53334;51.976;20.144;2023-07-22T04:28:14;26.60;54.30
36652;DHT22;53334;51.976;20.144;2023-07-22T04:30:55;26.60;54.30
36652;DHT22;53334;51.976;20.144;2023-07-22T04:33:30;26.60;54.30
36652;DHT22;53334;51.976;20.144;2023-07-22T04:36:03;26.60;54.30
36652;DHT22;53334;51.976;20.144;2023-07-22T04:38:37;26.60;54.40
36652;DHT22;53334;51.976;20.144;2023-07-22T04:41:10;26.60;54.40
36652;DHT22;53334;51.976;20.144;2023-07-22T04:43:45;26.60;54.40
36652;DHT22;53334;51.976;20.144;2023-07-22T04:46:19;26.60;54.40
36652;DHT22;53334;51.976;20.144;2023-07-22T04:48:54;26.60;54.40
36652;DHT22;53334;51.976;20.144;2023-07-22T04:51:27;26.60;54.40
36652;DHT22;53334;51.976;20.144;2023-07-22T04:54:00;26.60;54.40
36652;DHT22;53334;51.976;20.144;2023-07-22T04:56:33;26.60;54.40
36652;DHT22;53334;51.976;20.144;2023-07-22T04:59:08;26.60;54.30
36652;DHT22;53334;51.976;20.144;2023-07-22T05:01:42;26.60;54.30
36652;DHT22;53334;51.976;20.144;2023-07-22T05:04:16;26.60;54.30
36652;DHT22;53334;51.976;20.144;2023-07-22T05:06:49;26.60;54.20
36652;DHT22;53334;51.976;20.144;2023-07-22T05:09:22;26.60;54.20
36652;DHT22;53334;51.976;20.144;2023-07-22T05:11:55;26.60;54.10
36652;DHT22;53334;51.976;20.144;2023-07-22T05:14:30;26.60;54.10
36652;DHT22;53334;51.976;20.144;2023-07-22T05:17:04;26.60;54.00
36652;DHT22;53334;51.976;20.144;2023-07-22T05:19:38;26.60;54.00
36652;DHT22;53334;51.976;20.144;2023-07-22T05:22:11;26.60;54.00
36652;DHT22;53334;51.976;20.144;2023-07-22T05:24:44;26.60;54.00
36652;DHT22;53334;51.976;20.144;2023-07-22T05:27:18;26.60;53.90
36652;DHT22;53334;51.976;20.144;2023-07-22T05:29:52;26.60;53.90
36652;DHT22;53334;51.976;20.144;2023-07-22T05:32:27;26.60;53.90
36652;DHT22;53334;51.976;20.144;2023-07-22T05:35:05;26.60;53.90
36652;DHT22;53334;51.976;20.144;2023-07-22T05:37:39;26.60;53.90
36652;DHT22;53334;51.976;20.144;2023-07-22T05:40:13;26.60;53.90
36652;DHT22;53334;51.976;20.144;2023-07-22T05:42:46;26.60;53.80
36652;DHT22;53334;51.976;20.144;2023-07-22T05:45:21;26.60;53.80
36652;DHT22;53334;51.976;20.144;2023-07-22T05:47:55;26.60;53.90
36652;DHT22;53334;51.976;20.144;2023-07-22T05:50:28;26.60;54.00
36652;DHT22;53334;51.976;20.144;2023-07-22T05:53:01;26.60;54.00
36652;DHT22;53334;51.976;20.144;2023-07-22T05:55:35;26.60;54.00
36652;DHT22;53334;51.976;20.144;2023-07-22T05:58:15;26.60;54.00
36652;DHT22;53334;51.976;20.144;2023-07-22T06:00:50;26.60;54.00
36652;DHT22;53334;51.976;20.144;2023-07-22T06:03:24;26.60;54.00
36652;DHT22;53334;51.976;20.144;2023-07-22T06:05:57;26.60;54.00
36652;DHT22;53334;51.976;20.144;2023-07-22T06:08:31;26.60;54.10
36652;DHT22;53334;51.976;20.144;2023-07-22T06:11:04;26.60;53.90
36652;DHT22;53334;51.976;20.144;2023-07-22T06:13:37;26.60;53.90
36652;DHT22;53334;51.976;20.144;2023-07-22T06:16:12;26.60;53.80
36652;DHT22;53334;51.976;20.144;2023-07-22T06:18:46;26.60;53.70
36652;DHT22;53334;51.976;20.144;2023-07-22T06:21:20;26.60;53.70
36652;DHT22;53334;51.976;20.144;2023-07-22T06:23:53;26.60;53.60
36652;DHT22;53334;51.976;20.144;2023-07-22T06:26:26;26.60;53.60
36652;DHT22;53334;51.976;20.144;2023-07-22T06:29:00;26.60;53.60
36652;DHT22;53334;51.976;20.144;2023-07-22T06:31:35;26.60;53.60
36652;DHT22;53334;51.976;20.144;2023-07-22T06:34:09;26.60;53.50
36652;DHT22;53334;51.976;20.144;2023-07-22T06:36:42;26.60;53.50
36652;DHT22;53334;51.976;20.144;2023-07-22T06:39:15;26.60;52.80
36652;DHT22;53334;51.976;20.144;2023-07-22T06:41:48;26.60;52.20
36652;DHT22;53334;51.976;20.144;2023-07-22T06:44:22;26.60;51.10
36652;DHT22;53334;51.976;20.144;2023-07-22T06:46:56;26.50;50.00
36652;DHT22;53334;51.976;20.144;2023-07-22T06:49:30;26.50;50.10
36652;DHT22;53334;51.976;20.144;2023-07-22T06:52:04;26.50;50.20
36652;DHT22;53334;51.976;20.144;2023-07-22T06:54:37;26.50;50.40
36652;DHT22;53334;51.976;20.144;2023-07-22T06:57:10;26.50;50.30
36652;DHT22;53334;51.976;20.144;2023-07-22T06:59:44;26.50;50.30
36652;DHT22;53334;51.976;20.144;2023-07-22T07:02:19;26.50;50.30
36652;DHT22;53334;51.976;20.144;2023-07-22T07:04:52;26.50;50.20
36652;DHT22;53334;51.976;20.144;2023-07-22T07:07:25;26.60;50.30
36652;DHT22;53334;51.976;20.144;2023-07-22T07:09:59;26.60;50.40
36652;DHT22;53334;51.976;20.144;2023-07-22T07:12:32;26.60;50.30
36652;DHT22;53334;51.976;20.144;2023-07-22T07:15:06;26.60;50.20
36652;DHT22;53334;51.976;20.144;2023-07-22T07:17:42;26.60;50.20
36652;DHT22;53334;51.976;20.144;2023-07-22T07:20:15;26.60;50.20
36652;DHT22;53334;51.976;20.144;2023-07-22T07:22:48;26.60;50.00
36652;DHT22;53334;51.976;20.144;2023-07-22T07:25:22;26.70;50.00
36652;DHT22;53334;51.976;20.144;2023-07-22T07:27:55;26.70;49.90
36652;DHT22;53334;51.976;20.144;2023-07-22T07:30:28;26.70;49.80
36652;DHT22;53334;51.976;20.144;2023-07-22T07:33:04;26.70;49.90
36652;DHT22;53334;51.976;20.144;2023-07-22T07:35:37;26.70;49.80
36652;DHT22;53334;51.976;20.144;2023-07-22T07:38:10;26.70;49.70
36652;DHT22;53334;51.976;20.144;2023-07-22T07:40:44;26.70;49.60
36652;DHT22;53334;51.976;20.144;2023-07-22T07:43:17;26.70;49.70
36652;DHT22;53334;51.976;20.144;2023-07-22T07:45:50;26.80;49.80
36652;DHT22;53334;51.976;20.144;2023-07-22T07:48:46;26.80;49.60
36652;DHT22;53334;51.976;20.144;2023-07-22T07:51:20;26.80;49.20
36652;DHT22;53334;51.976;20.144;2023-07-22T07:53:54;26.80;49.20
36652;DHT22;53334;51.976;20.144;2023-07-22T07:56:28;26.80;49.20
36652;DHT22;53334;51.976;20.144;2023-07-22T07:59:01;26.80;49.00
36652;DHT22;53334;51.976;20.144;2023-07-22T08:01:37;26.80;48.90
36652;DHT22;53334;51.976;20.144;2023-07-22T08:04:15;26.80;48.60
36652;DHT22;53334;51.976;20.144;2023-07-22T08:06:49;26.80;48.40
36652;DHT22;53334;51.976;20.144;2023-07-22T08:09:23;26.80;48.30
36652;DHT22;53334;51.976;20.144;2023-07-22T08:11:56;26.80;48.30
36652;DHT22;53334;51.976;20.144;2023-07-22T08:14:29;26.80;48.40
36652;DHT22;53334;51.976;20.144;2023-07-22T08:17:03;26.80;48.30
36652;DHT22;53334;51.976;20.144;2023-07-22T08:19:38;26.80;48.30
36652;DHT22;53334;51.976;20.144;2023-07-22T08:22:11;26.80;48.80
36652;DHT22;53334;51.976;20.144;2023-07-22T08:24:45;26.80;48.90
36652;DHT22;53334;51.976;20.144;2023-07-22T08:27:21;26.80;48.90
36652;DHT22;53334;51.976;20.144;2023-07-22T08:29:56;26.80;49.10
36652;DHT22;53334;51.976;20.144;2023-07-22T08:32:29;26.80;49.00
36652;DHT22;53334;51.976;20.144;2023-07-22T08:35:05;26.80;49.60
36652;DHT22;53334;51.976;20.144;2023-07-22T08:37:39;26.80;49.20
36652;DHT22;53334;51.976;20.144;2023-07-22T08:40:12;26.80;49.20
36652;DHT22;53334;51.976;20.144;2023-07-22T08:42:46;26.80;49.20
36652;DHT22;53334;51.976;20.144;2023-07-22T08:45:21;26.80;49.20
36652;DHT22;53334;51.976;20.144;2023-07-22T08:47:58;26.80;49.20
36652;DHT22;53334;51.976;20.144;2023-07-22T08:50:37;26.80;49.10
36652;DHT22;53334;51.976;20.144;2023-07-22T08:53:15;26.80;49.00
36652;DHT22;53334;51.976;20.144;2023-07-22T08:55:48;26.80;49.00
36652;DHT22;53334;51.976;20.144;2023-07-22T08:58:24;26.80;49.00
36652;DHT22;53334;51.976;20.144;2023-07-22T09:00:58;26.80;49.10
36652;DHT22;53334;51.976;20.144;2023-07-22T09:03:33;26.80;49.00
36652;DHT22;53334;51.976;20.144;2023-07-22T09:06:08;26.80;49.00
36652;DHT22;53334;51.976;20.144;2023-07-22T09:08:42;26.80;49.50
36652;DHT22;53334;51.976;20.144;2023-07-22T09:11:16;26.80;48.90
36652;DHT22;53334;51.976;20.144;2023-07-22T09:13:50;26.80;48.80
36652;DHT22;53334;51.976;20.144;2023-07-22T09:16:24;26.80;48.70
36652;DHT22;53334;51.976;20.144;2023-07-22T09:19:03;26.80;48.70
36652;DHT22;53334;51.976;20.144;2023-07-22T09:21:38;26.80;48.50
36652;DHT22;53334;51.976;20.144;2023-07-22T09:24:21;26.80;49.30
36652;DHT22;53334;51.976;20.144;2023-07-22T09:26:55;26.80;49.20
36652;DHT22;53334;51.976;20.144;2023-07-22T09:29:36;26.80;49.60
36652;DHT22;53334;51.976;20.144;2023-07-22T09:32:10;26.80;49.90
36652;DHT22;53334;51.976;20.144;2023-07-22T09:34:54;26.80;49.80
36652;DHT22;53334;51.976;20.144;2023-07-22T09:37:37;26.90;50.10
36652;DHT22;53334;51.976;20.144;2023-07-22T09:43:12;26.90;49.50
36652;DHT22;53334;51.976;20.144;2023-07-22T09:45:46;26.90;49.50
36652;DHT22;53334;51.976;20.144;2023-07-22T09:48:21;26.90;49.70
36652;DHT22;53334;51.976;20.144;2023-07-22T09:50:58;26.90;49.60
36652;DHT22;53334;51.976;20.144;2023-07-22T09:53:33;26.90;49.30
36652;DHT22;53334;51.976;20.144;2023-07-22T09:56:06;26.90;49.10
36652;DHT22;53334;51.976;20.144;2023-07-22T09:58:40;26.90;48.90
36652;DHT22;53334;51.976;20.144;2023-07-22T10:01:15;26.80;48.80
36652;DHT22;53334;51.976;20.144;2023-07-22T10:03:53;26.80;48.40
36652;DHT22;53334;51.976;20.144;2023-07-22T10:06:28;26.80;46.90
36652;DHT22;53334;51.976;20.144;2023-07-22T10:09:03;26.70;46.10
36652;DHT22;53334;51.976;20.144;2023-07-22T10:11:39;26.70;46.30
36652;DHT22;53334;51.976;20.144;2023-07-22T10:14:13;26.70;46.50
36652;DHT22;53334;51.976;20.144;2023-07-22T10:16:46;26.60;46.40
36652;DHT22;53334;51.976;20.144;2023-07-22T10:19:21;26.60;46.70
36652;DHT22;53334;51.976;20.144;2023-07-22T10:21:55;26.60;46.60
36652;DHT22;53334;51.976;20.144;2023-07-22T10:24:31;26.60;47.20
36652;DHT22;53334;51.976;20.144;2023-07-22T10:27:06;26.60;48.20
36652;DHT22;53334;51.976;20.144;2023-07-22T10:29:40;26.60;48.00
36652;DHT22;53334;51.976;20.144;2023-07-22T10:32:13;26.60;47.40
36652;DHT22;53334;51.976;20.144;2023-07-22T10:34:49;26.50;47.30
36652;DHT22;53334;51.976;20.144;2023-07-22T10:37:29;26.50;47.80
36652;DHT22;53334;51.976;20.144;2023-07-22T10:40:18;26.50;47.50
36652;DHT22;53334;51.976;20.144;2023-07-22T10:42:53;26.50;47.00
36652;DHT22;53334;51.976;20.144;2023-07-22T10:45:29;26.50;46.40
36652;DHT22;53334;51.976;20.144;2023-07-22T10:48:06;26.50;45.60
36652;DHT22;53334;51.976;20.144;2023-07-22T10:50:41;26.50;44.90
36652;DHT22;53334;51.976;20.144;2023-07-22T10:53:21;26.40;44.60
36652;DHT22;53334;51.976;20.144;2023-07-22T10:56:06;26.40;44.50
36652;DHT22;53334;51.976;20.144;2023-07-22T10:58:59;26.30;44.80
36652;DHT22;53334;51.976;20.144;2023-07-22T11:01:35;26.30;44.60
36652;DHT22;53334;51.976;20.144;2023-07-22T11:04:14;26.30;45.10
36652;DHT22;53334;51.976;20.144;2023-07-22T11:06:54;26.20;44.90
36652;DHT22;53334;51.976;20.144;2023-07-22T11:09:40;26.20;45.80
36652;DHT22;53334;51.976;20.144;2023-07-22T11:12:18;26.20;47.50
36652;DHT22;53334;51.976;20.144;2023-07-22T11:15:02;26.20;47.80
36652;DHT22;53334;51.976;20.144;2023-07-22T11:17:37;26.30;47.90
36652;DHT22;53334;51.976;20.144;2023-07-22T11:20:11;26.30;47.70
36652;DHT22;53334;51.976;20.144;2023-07-22T11:22:44;26.30;47.30
36652;DHT22;53334;51.976;20.144;2023-07-22T11:25:18;26.30;47.00
36652;DHT22;53334;51.976;20.144;2023-07-22T11:27:53;26.30;46.70
36652;DHT22;53334;51.976;20.144;2023-07-22T11:30:27;26.40;46.60
36652;DHT22;53334;51.976;20.144;2023-07-22T11:33:00;26.40;46.50
36652;DHT22;53334;51.976;20.144;2023-07-22T11:35:33;26.40;46.30
36652;DHT22;53334;51.976;20.144;2023-07-22T11:38:07;26.40;46.20
36652;DHT22;53334;51.976;20.144;2023-07-22T11:40:40;26.40;46.10
36652;DHT22;53334;51.976;20.144;2023-07-22T11:43:15;26.40;46.30
36652;DHT22;53334;51.976;20.144;2023-07-22T11:45:52;26.50;46.60
36652;DHT22;53334;51.976;20.144;2023-07-22T11:48:28;26.50;47.00
36652;DHT22;53334;51.976;20.144;2023-07-22T11:51:02;26.50;47.60
36652;DHT22;53334;51.976;20.144;2023-07-22T11:53:35;26.40;47.50
36652;DHT22;53334;51.976;20.144;2023-07-22T11:56:09;26.40;47.20
36652;DHT22;53334;51.976;20.144;2023-07-22T11:58:48;26.30;47.00
36652;DHT22;53334;51.976;20.144;2023-07-22T12:01:22;26.40;46.80
36652;DHT22;53334;51.976;20.144;2023-07-22T12:03:56;26.30;46.50
36652;DHT22;53334;51.976;20.144;2023-07-22T12:06:31;26.30;46.50
36652;DHT22;53334;51.976;20.144;2023-07-22T12:09:07;26.30;46.10
36652;DHT22;53334;51.976;20.144;2023-07-22T12:11:40;26.30;45.80
36652;DHT22;53334;51.976;20.144;2023-07-22T12:14:15;26.30;45.40
36652;DHT22;53334;51.976;20.144;2023-07-22T12:16:55;26.30;45.20
36652;DHT22;53334;51.976;20.144;2023-07-22T12:19:29;26.30;44.70
36652;DHT22;53334;51.976;20.144;2023-07-22T12:22:03;26.30;44.50
36652;DHT22;53334;51.976;20.144;2023-07-22T12:24:36;26.20;44.10
36652;DHT22;53334;51.976;20.144;2023-07-22T12:27:10;26.20;44.00
36652;DHT22;53334;51.976;20.144;2023-07-22T12:29:44;26.20;43.70
36652;DHT22;53334;51.976;20.144;2023-07-22T12:32:18;26.20;43.50
36652;DHT22;53334;51.976;20.144;2023-07-22T12:34:51;26.20;43.00
36652;DHT22;53334;51.976;20.144;2023-07-22T12:37:24;26.20;42.90
36652;DHT22;53334;51.976;20.144;2023-07-22T12:39:58;26.20;42.90
36652;DHT22;53334;51.976;20.144;2023-07-22T12:42:32;26.10;42.80
36652;DHT22;53334;51.976;20.144;2023-07-22T12:45:08;26.10;42.70
36652;DHT22;53334;51.976;20.144;2023-07-22T12:47:41;26.10;42.90
36652;DHT22;53334;51.976;20.144;2023-07-22T12:50:15;26.00;42.80
36652;DHT22;53334;51.976;20.144;2023-07-22T12:52:48;26.00;42.90
36652;DHT22;53334;51.976;20.144;2023-07-22T12:55:21;26.00;42.90
36652;DHT22;53334;51.976;20.144;2023-07-22T12:57:55;26.00;43.10
36652;DHT22;53334;51.976;20.144;2023-07-22T13:00:29;26.00;43.10
36652;DHT22;53334;51.976;20.144;2023-07-22T13:03:03;26.00;43.10
36652;DHT22;53334;51.976;20.144;2023-07-22T13:05:37;25.90;43.10
36652;DHT22;53334;51.976;20.144;2023-07-22T13:08:10;25.90;43.10
36652;DHT22;53334;51.976;20.144;2023-07-22T13:10:44;25.90;43.20
36652;DHT22;53334;51.976;20.144;2023-07-22T13:13:19;25.90;43.30
36652;DHT22;53334;51.976;20.144;2023-07-22T13:15:53;25.90;43.30
36652;DHT22;53334;51.976;20.144;2023-07-22T13:18:27;25.90;43.40
36652;DHT22;53334;51.976;20.144;2023-07-22T13:21:00;25.90;43.30
36652;DHT22;53334;51.976;20.144;2023-07-22T13:23:33;25.90;43.40
36652;DHT22;53334;51.976;20.144;2023-07-22T13:26:07;25.80;43.40
36652;DHT22;53334;51.976;20.144;2023-07-22T13:28:40;25.80;43.40
36652;DHT22;53334;51.976;20.144;2023-07-22T13:31:15;25.80;43.40
36652;DHT22;53334;51.976;20.144;2023-07-22T13:33:48;25.80;43.40
36652;DHT22;53334;51.976;20.144;2023-07-22T13:36:21;25.80;43.50
36652;DHT22;53334;51.976;20.144;2023-07-22T13:38:55;25.80;43.60
36652;DHT22;53334;51.976;20.144;2023-07-22T13:41:28;25.80;43.60
36652;DHT22;53334;51.976;20.144;2023-07-22T13:44:02;25.80;43.60
36652;DHT22;53334;51.976;20.144;2023-07-22T13:46:36;25.80;43.60
36652;DHT22;53334;51.976;20.144;2023-07-22T13:49:10;25.70;43.60
36652;DHT22;53334;51.976;20.144;2023-07-22T13:51:43;25.70;43.60
36652;DHT22;53334;51.976;20.144;2023-07-22T13:54:16;25.70;43.60
36652;DHT22;53334;51.976;20.144;2023-07-22T13:56:51;25.70;43.60
36652;DHT22;53334;51.976;20.144;2023-07-22T13:59:25;25.70;43.60
36652;DHT22;53334;51.976;20.144;2023-07-22T14:01:59;25.70;43.70
36652;DHT22;53334;51.976;20.144;2023-07-22T14:04:33;25.70;43.60
36652;DHT22;53334;51.976;20.144;2023-07-22T14:07:06;25.60;43.60
36652;DHT22;53334;51.976;20.144;2023-07-22T14:09:39;25.60;43.60
36652;DHT22;53334;51.976;20.144;2023-07-22T14:12:13;25.60;44.20
36652;DHT22;53334;51.976;20.144;2023-07-22T14:14:46;25.60;43.60
36652;DHT22;53334;51.976;20.144;2023-07-22T14:17:21;25.60;43.50
36652;DHT22;53334;51.976;20.144;2023-07-22T14:19:54;25.60;43.50
36652;DHT22;53334;51.976;20.144;2023-07-22T14:22:27;25.60;43.60
36652;DHT22;53334;51.976;20.144;2023-07-22T14:25:00;25.60;43.50
36652;DHT22;53334;51.976;20.144;2023-07-22T14:27:34;25.60;43.50
36652;DHT22;53334;51.976;20.144;2023-07-22T14:30:08;25.60;43.50
36652;DHT22;53334;51.976;20.144;2023-07-22T14:32:42;25.50;43.50
36652;DHT22;53334;51.976;20.144;2023-07-22T14:35:16;25.50;43.50
36652;DHT22;53334;51.976;20.144;2023-07-22T14:37:49;25.50;43.50
36652;DHT22;53334;51.976;20.144;2023-07-22T14:40:23;25.50;43.50
36652;DHT22;53334;51.976;20.144;2023-07-22T14:42:56;25.50;43.40
36652;DHT22;53334;51.976;20.144;2023-07-22T14:45:30;25.50;43.40
36652;DHT22;53334;51.976;20.144;2023-07-22T14:48:05;25.50;43.50
36652;DHT22;53334;51.976;20.144;2023-07-22T14:50:39;25.50;43.50
36652;DHT22;53334;51.976;20.144;2023-07-22T14:53:12;25.50;43.50
36652;DHT22;53334;51.976;20.144;2023-07-22T14:55:45;25.50;43.40
36652;DHT22;53334;51.976;20.144;2023-07-22T14:58:18;25.40;43.30
36652;DHT22;53334;51.976;20.144;2023-07-22T15:00:51;25.40;43.20
36652;DHT22;53334;51.976;20.144;2023-07-22T15:03:26;25.40;43.20
36652;DHT22;53334;51.976;20.144;2023-07-22T15:05:59;25.40;43.00
36652;DHT22;53334;51.976;20.144;2023-07-22T15:08:33;25.50;43.00
36652;DHT22;53334;51.976;20.144;2023-07-22T15:11:07;25.50;42.90
36652;DHT22;53334;51.976;20.144;2023-07-22T15:13:40;25.40;42.90
36652;DHT22;53334;51.976;20.144;2023-07-22T15:16:14;25.40;42.80
36652;DHT22;53334;51.976;20.144;2023-07-22T15:18:49;25.40;42.60
36652;DHT22;53334;51.976;20.144;2023-07-22T15:21:22;25.40;42.50
36652;DHT22;53334;51.976;20.144;2023-07-22T15:23:56;25.50;42.60
36652;DHT22;53334;51.976;20.144;2023-07-22T15:26:29;25.50;42.40
36652;DHT22;53334;51.976;20.144;2023-07-22T15:29:03;25.40;42.30
36652;DHT22;53334;51.976;20.144;2023-07-22T15:31:36;25.40;42.30
36652;DHT22;53334;51.976;20.144;2023-07-22T15:34:11;25.40;42.20
36652;DHT22;53334;51.976;20.144;2023-07-22T15:36:44;25.40;42.40
36652;DHT22;53334;51.976;20.144;2023-07-22T15:39:17;25.50;43.20
36652;DHT22;53334;51.976;20.144;2023-07-22T15:41:51;25.50;43.70
36652;DHT22;53334;51.976;20.144;2023-07-22T15:44:24;25.50;44.20
36652;DHT22;53334;51.976;20.144;2023-07-22T15:46:59;25.50;44.50
36652;DHT22;53334;51.976;20.144;2023-07-22T15:49:34;25.60;45.10
36652;DHT22;53334;51.976;20.144;2023-07-22T15:52:07;25.60;46.30
36652;DHT22;53334;51.976;20.144;2023-07-22T15:54:41;25.70;47.60
36652;DHT22;53334;51.976;20.144;2023-07-22T15:57:14;25.70;48.30
36652;DHT22;53334;51.976;20.144;2023-07-22T15:59:47;25.80;49.30
36652;DHT22;53334;51.976;20.144;2023-07-22T16:02:21;25.80;49.40